sensor_id;sensor_type;location;lat;lon;timestamp;P1;durP1;ratioP1;P2;durP2;ratioP2
22378;SDS011;11357;49.990;7.370;2023-07-31T00:00:39;8.33;;;2.30;;
22378;SDS011;11357;49.990;7.370;2023-07-31T00:03:05;6.40;;;2.33;;
22378;SDS011;11357;49.990;7.370;2023-07-31T00:05:31;10.77;;;2.57;;
22378;SDS011;11357;49.990;7.370;2023-07-31T00:07:57;7.38;;;2.38;;
22378;SDS011;11357;49.990;7.370;2023-07-31T00:10:22;6.57;;;2.30;;
22378;SDS011;11357;49.990;7.370;2023-07-31T00:12:48;4.53;;;2.28;;
22378;SDS011;11357;49.990;7.370;2023-07-31T00:15:14;6.50;;;2.40;;
22378;SDS011;11357;49.990;7.370;2023-07-31T00:17:40;6.70;;;2.47;;
22378;SDS011;11357;49.990;7.370;2023-07-31T00:20:06;6.53;;;3.17;;
22378;SDS011;11357;49.990;7.370;2023-07-31T00:22:32;7.10;;;2.80;;
22378;SDS011;11357;49.990;7.370;2023-07-31T00:24:58;6.20;;;2.53;;
22378;SDS011;11357;49.990;7.370;2023-07-31T00:27:24;7.70;;;2.92;;
22378;SDS011;11357;49.990;7.370;2023-07-31T00:29:50;7.10;;;2.43;;
22378;SDS011;11357;49.990;7.370;2023-07-31T00:32:16;6.17;;;2.50;;
22378;SDS011;11357;49.990;7.370;2023-07-31T00:34:42;6.70;;;2.47;;
22378;SDS011;11357;49.990;7.370;2023-07-31T00:37:07;13.13;;;3.10;;
22378;SDS011;11357;49.990;7.370;2023-07-31T00:39:33;5.10;;;2.40;;
22378;SDS011;11357;49.990;7.370;2023-07-31T00:42:00;6.27;;;2.20;;
22378;SDS011;11357;49.990;7.370;2023-07-31T00:44:25;8.90;;;2.57;;
22378;SDS011;11357;49.990;7.370;2023-07-31T00:46:51;6.33;;;2.67;;
22378;SDS011;11357;49.990;7.370;2023-07-31T00:49:17;5.23;;;2.43;;
22378;SDS011;11357;49.990;7.370;2023-07-31T00:51:43;5.55;;;2.75;;
22378;SDS011;11357;49.990;7.370;2023-07-31T00:54:09;4.43;;;2.40;;
22378;SDS011;11357;49.990;7.370;2023-07-31T00:56:36;4.40;;;2.80;;
22378;SDS011;11357;49.990;7.370;2023-07-31T00:59:02;5.43;;;2.60;;
22378;SDS011;11357;49.990;7.370;2023-07-31T01:01:28;7.13;;;2.63;;
22378;SDS011;11357;49.990;7.370;2023-07-31T01:03:54;6.83;;;3.10;;
22378;SDS011;11357;49.990;7.370;2023-07-31T01:09:11;6.37;;;2.50;;
22378;SDS011;11357;49.990;7.370;2023-07-31T01:11:48;5.87;;;2.60;;
22378;SDS011;11357;49.990;7.370;2023-07-31T01:14:18;7.43;;;2.80;;
22378;SDS011;11357;49.990;7.370;2023-07-31T01:16:43;7.43;;;2.60;;
22378;SDS011;11357;49.990;7.370;2023-07-31T01:19:09;6.93;;;2.70;;
22378;SDS011;11357;49.990;7.370;2023-07-31T01:27:14;6.40;;;2.87;;
22378;SDS011;11357;49.990;7.370;2023-07-31T01:29:53;8.50;;;3.10;;
22378;SDS011;11357;49.990;7.370;2023-07-31T01:32:26;7.53;;;3.37;;
22378;SDS011;11357;49.990;7.370;2023-07-31T01:34:53;9.43;;;3.53;;
22378;SDS011;11357;49.990;7.370;2023-07-31T01:37:20;10.33;;;3.63;;
22378;SDS011;11357;49.990;7.370;2023-07-31T01:39:45;9.60;;;3.50;;
22378;SDS011;11357;49.990;7.370;2023-07-31T01:42:11;6.03;;;3.07;;
22378;SDS011;11357;49.990;7.370;2023-07-31T01:44:37;7.27;;;3.33;;
22378;SDS011;11357;49.990;7.370;2023-07-31T01:47:03;5.83;;;3.03;;
22378;SDS011;11357;49.990;7.370;2023-07-31T01:49:28;5.97;;;3.00;;
22378;SDS011;11357;49.990;7.370;2023-07-31T01:51:54;9.47;;;3.40;;
22378;SDS011;11357;49.990;7.370;2023-07-31T01:54:23;6.10;;;3.10;;
22378;SDS011;11357;49.990;7.370;2023-07-31T01:56:49;6.43;;;3.17;;
22378;SDS011;11357;49.990;7.370;2023-07-31T01:59:14;9.37;;;3.50;;
22378;SDS011;11357;49.990;7.370;2023-07-31T02:01:40;9.43;;;3.90;;
22378;SDS011;11357;49.990;7.370;2023-07-31T02:04:06;8.90;;;3.43;;
22378;SDS011;11357;49.990;7.370;2023-07-31T02:06:31;6.00;;;3.30;;
22378;SDS011;11357;49.990;7.370;2023-07-31T02:08:57;7.13;;;3.67;;
22378;SDS011;11357;49.990;7.370;2023-07-31T02:11:23;6.00;;;3.33;;
22378;SDS011;11357;49.990;7.370;2023-07-31T02:13:49;11.13;;;3.50;;
22378;SDS011;11357;49.990;7.370;2023-07-31T02:16:14;6.20;;;3.43;;
22378;SDS011;11357;49.990;7.370;2023-07-31T02:18:40;6.38;;;3.13;;
22378;SDS011;11357;49.990;7.370;2023-07-31T02:21:06;6.10;;;3.30;;
22378;SDS011;11357;49.990;7.370;2023-07-31T02:23:31;8.57;;;3.33;;
22378;SDS011;11357;49.990;7.370;2023-07-31T02:25:57;6.73;;;3.47;;
22378;SDS011;11357;49.990;7.370;2023-07-31T02:28:23;9.80;;;3.53;;
22378;SDS011;11357;49.990;7.370;2023-07-31T02:30:50;5.77;;;3.33;;
22378;SDS011;11357;49.990;7.370;2023-07-31T02:33:17;8.40;;;2.90;;
22378;SDS011;11357;49.990;7.370;2023-07-31T02:35:42;8.37;;;2.90;;
22378;SDS011;11357;49.990;7.370;2023-07-31T02:38:08;6.00;;;3.20;;
22378;SDS011;11357;49.990;7.370;2023-07-31T02:40:34;8.77;;;3.00;;
22378;SDS011;11357;49.990;7.370;2023-07-31T02:43:00;8.80;;;3.00;;
22378;SDS011;11357;49.990;7.370;2023-07-31T02:45:25;6.27;;;2.90;;
22378;SDS011;11357;49.990;7.370;2023-07-31T02:47:51;7.50;;;3.40;;
22378;SDS011;11357;49.990;7.370;2023-07-31T02:50:17;7.10;;;3.27;;
22378;SDS011;11357;49.990;7.370;2023-07-31T02:52:42;6.07;;;3.33;;
22378;SDS011;11357;49.990;7.370;2023-07-31T02:55:08;6.33;;;3.23;;
22378;SDS011;11357;49.990;7.370;2023-07-31T02:57:34;9.87;;;3.50;;
22378;SDS011;11357;49.990;7.370;2023-07-31T02:59:59;8.60;;;3.40;;
22378;SDS011;11357;49.990;7.370;2023-07-31T03:02:25;5.73;;;3.47;;
22378;SDS011;11357;49.990;7.370;2023-07-31T03:04:51;6.27;;;3.27;;
22378;SDS011;11357;49.990;7.370;2023-07-31T03:07:17;8.33;;;3.73;;
22378;SDS011;11357;49.990;7.370;2023-07-31T03:09:43;7.63;;;3.13;;
22378;SDS011;11357;49.990;7.370;2023-07-31T03:12:08;9.20;;;3.67;;
22378;SDS011;11357;49.990;7.370;2023-07-31T03:14:34;8.77;;;3.50;;
22378;SDS011;11357;49.990;7.370;2023-07-31T03:17:00;8.80;;;3.63;;
22378;SDS011;11357;49.990;7.370;2023-07-31T03:19:25;5.83;;;3.23;;
22378;SDS011;11357;49.990;7.370;2023-07-31T03:21:51;10.67;;;3.67;;
22378;SDS011;11357;49.990;7.370;2023-07-31T03:24:17;8.33;;;3.10;;
22378;SDS011;11357;49.990;7.370;2023-07-31T03:26:42;8.33;;;3.30;;
22378;SDS011;11357;49.990;7.370;2023-07-31T03:29:08;8.37;;;3.30;;
22378;SDS011;11357;49.990;7.370;2023-07-31T03:31:34;11.03;;;3.50;;
22378;SDS011;11357;49.990;7.370;2023-07-31T03:33:59;9.47;;;3.50;;
22378;SDS011;11357;49.990;7.370;2023-07-31T03:36:25;11.63;;;3.23;;
22378;SDS011;11357;49.990;7.370;2023-07-31T03:38:51;14.13;;;3.97;;
22378;SDS011;11357;49.990;7.370;2023-07-31T03:41:17;9.43;;;3.47;;
22378;SDS011;11357;49.990;7.370;2023-07-31T03:43:43;8.00;;;3.50;;
22378;SDS011;11357;49.990;7.370;2023-07-31T03:46:10;8.87;;;3.73;;
22378;SDS011;11357;49.990;7.370;2023-07-31T03:48:36;9.20;;;3.87;;
22378;SDS011;11357;49.990;7.370;2023-07-31T03:51:01;9.80;;;4.00;;
22378;SDS011;11357;49.990;7.370;2023-07-31T03:53:27;10.40;;;3.60;;
22378;SDS011;11357;49.990;7.370;2023-07-31T03:55:53;9.30;;;4.00;;
22378;SDS011;11357;49.990;7.370;2023-07-31T03:58:18;9.87;;;4.07;;
22378;SDS011;11357;49.990;7.370;2023-07-31T04:00:45;6.97;;;3.43;;
22378;SDS011;11357;49.990;7.370;2023-07-31T04:03:10;6.70;;;3.93;;
22378;SDS011;11357;49.990;7.370;2023-07-31T04:05:37;13.63;;;4.23;;
22378;SDS011;11357;49.990;7.370;2023-07-31T04:08:04;8.30;;;3.50;;
22378;SDS011;11357;49.990;7.370;2023-07-31T04:10:29;8.70;;;3.77;;
22378;SDS011;11357;49.990;7.370;2023-07-31T04:12:58;7.30;;;3.40;;
22378;SDS011;11357;49.990;7.370;2023-07-31T04:15:24;11.43;;;3.83;;
22378;SDS011;11357;49.990;7.370;2023-07-31T04:17:50;8.07;;;3.40;;
22378;SDS011;11357;49.990;7.370;2023-07-31T04:20:15;9.77;;;4.03;;
22378;SDS011;11357;49.990;7.370;2023-07-31T04:22:41;8.40;;;3.77;;
22378;SDS011;11357;49.990;7.370;2023-07-31T04:25:07;11.07;;;4.40;;
22378;SDS011;11357;49.990;7.370;2023-07-31T04:27:36;8.10;;;3.87;;
22378;SDS011;11357;49.990;7.370;2023-07-31T04:30:02;6.47;;;3.20;;
22378;SDS011;11357;49.990;7.370;2023-07-31T04:32:28;13.67;;;3.87;;
22378;SDS011;11357;49.990;7.370;2023-07-31T04:34:54;7.13;;;3.50;;
22378;SDS011;11357;49.990;7.370;2023-07-31T04:37:20;9.30;;;4.00;;
22378;SDS011;11357;49.990;7.370;2023-07-31T04:39:46;10.33;;;3.50;;
22378;SDS011;11357;49.990;7.370;2023-07-31T04:42:12;6.87;;;3.53;;
22378;SDS011;11357;49.990;7.370;2023-07-31T04:44:37;8.83;;;3.47;;
22378;SDS011;11357;49.990;7.370;2023-07-31T04:47:03;9.30;;;3.80;;
22378;SDS011;11357;49.990;7.370;2023-07-31T04:49:29;10.57;;;3.50;;
22378;SDS011;11357;49.990;7.370;2023-07-31T04:51:55;6.03;;;3.80;;
22378;SDS011;11357;49.990;7.370;2023-07-31T04:54:20;7.63;;;3.87;;
22378;SDS011;11357;49.990;7.370;2023-07-31T04:56:46;8.37;;;3.57;;
22378;SDS011;11357;49.990;7.370;2023-07-31T04:59:12;10.43;;;3.73;;
22378;SDS011;11357;49.990;7.370;2023-07-31T05:01:38;13.13;;;4.23;;
22378;SDS011;11357;49.990;7.370;2023-07-31T05:04:04;8.53;;;3.70;;
22378;SDS011;11357;49.990;7.370;2023-07-31T05:06:29;7.47;;;3.27;;
22378;SDS011;11357;49.990;7.370;2023-07-31T05:08:55;10.10;;;3.70;;
22378;SDS011;11357;49.990;7.370;2023-07-31T05:11:21;11.57;;;3.20;;
22378;SDS011;11357;49.990;7.370;2023-07-31T05:13:46;11.00;;;4.30;;
22378;SDS011;11357;49.990;7.370;2023-07-31T05:16:12;8.83;;;3.50;;
22378;SDS011;11357;49.990;7.370;2023-07-31T05:18:38;9.77;;;3.90;;
22378;SDS011;11357;49.990;7.370;2023-07-31T05:21:03;10.87;;;3.50;;
22378;SDS011;11357;49.990;7.370;2023-07-31T05:23:29;8.30;;;3.60;;
22378;SDS011;11357;49.990;7.370;2023-07-31T05:26:07;10.97;;;3.63;;
22378;SDS011;11357;49.990;7.370;2023-07-31T05:28:34;9.40;;;3.40;;
22378;SDS011;11357;49.990;7.370;2023-07-31T05:31:01;10.50;;;4.10;;
22378;SDS011;11357;49.990;7.370;2023-07-31T05:33:28;8.00;;;3.73;;
22378;SDS011;11357;49.990;7.370;2023-07-31T05:35:53;12.83;;;3.53;;
22378;SDS011;11357;49.990;7.370;2023-07-31T05:38:19;7.93;;;3.50;;
22378;SDS011;11357;49.990;7.370;2023-07-31T05:40:45;12.40;;;3.93;;
22378;SDS011;11357;49.990;7.370;2023-07-31T05:43:11;8.67;;;3.40;;
22378;SDS011;11357;49.990;7.370;2023-07-31T05:45:37;7.60;;;3.70;;
22378;SDS011;11357;49.990;7.370;2023-07-31T05:48:03;12.07;;;3.60;;
22378;SDS011;11357;49.990;7.370;2023-07-31T05:50:29;9.03;;;3.13;;
22378;SDS011;11357;49.990;7.370;2023-07-31T05:52:55;8.70;;;3.23;;
22378;SDS011;11357;49.990;7.370;2023-07-31T05:55:21;8.87;;;3.60;;
22378;SDS011;11357;49.990;7.370;2023-07-31T05:57:47;9.03;;;3.40;;
22378;SDS011;11357;49.990;7.370;2023-07-31T06:00:13;8.47;;;3.70;;
22378;SDS011;11357;49.990;7.370;2023-07-31T06:02:39;6.87;;;3.00;;
22378;SDS011;11357;49.990;7.370;2023-07-31T06:05:04;7.07;;;3.30;;
22378;SDS011;11357;49.990;7.370;2023-07-31T06:07:34;9.23;;;3.90;;
22378;SDS011;11357;49.990;7.370;2023-07-31T06:09:59;9.73;;;3.37;;
22378;SDS011;11357;49.990;7.370;2023-07-31T06:12:33;8.00;;;3.50;;
22378;SDS011;11357;49.990;7.370;2023-07-31T06:15:00;8.83;;;3.43;;
22378;SDS011;11357;49.990;7.370;2023-07-31T06:17:25;9.10;;;3.20;;
22378;SDS011;11357;49.990;7.370;2023-07-31T06:19:51;13.40;;;3.73;;
22378;SDS011;11357;49.990;7.370;2023-07-31T06:22:17;6.70;;;3.30;;
22378;SDS011;11357;49.990;7.370;2023-07-31T06:24:43;7.60;;;2.90;;
22378;SDS011;11357;49.990;7.370;2023-07-31T06:27:09;6.70;;;3.30;;
22378;SDS011;11357;49.990;7.370;2023-07-31T06:29:36;6.78;;;3.15;;
22378;SDS011;11357;49.990;7.370;2023-07-31T06:32:01;7.83;;;3.47;;
22378;SDS011;11357;49.990;7.370;2023-07-31T06:34:28;8.70;;;3.23;;
22378;SDS011;11357;49.990;7.370;2023-07-31T06:36:54;7.87;;;3.07;;
22378;SDS011;11357;49.990;7.370;2023-07-31T06:39:20;7.30;;;3.40;;
22378;SDS011;11357;49.990;7.370;2023-07-31T06:41:46;9.35;;;4.07;;
22378;SDS011;11357;49.990;7.370;2023-07-31T06:44:12;7.37;;;3.10;;
22378;SDS011;11357;49.990;7.370;2023-07-31T06:46:38;7.23;;;3.37;;
22378;SDS011;11357;49.990;7.370;2023-07-31T06:49:03;7.37;;;3.50;;
22378;SDS011;11357;49.990;7.370;2023-07-31T06:51:29;9.10;;;3.17;;
22378;SDS011;11357;49.990;7.370;2023-07-31T06:53:56;8.18;;;3.28;;
22378;SDS011;11357;49.990;7.370;2023-07-31T06:56:22;8.13;;;3.28;;
22378;SDS011;11357;49.990;7.370;2023-07-31T06:58:48;5.57;;;3.00;;
22378;SDS011;11357;49.990;7.370;2023-07-31T07:01:14;6.70;;;2.80;;
22378;SDS011;11357;49.990;7.370;2023-07-31T07:03:40;8.17;;;3.00;;
22378;SDS011;11357;49.990;7.370;2023-07-31T07:06:06;9.82;;;3.10;;
22378;SDS011;11357;49.990;7.370;2023-07-31T07:08:32;8.13;;;3.00;;
22378;SDS011;11357;49.990;7.370;2023-07-31T07:10:57;13.98;;;3.67;;
22378;SDS011;11357;49.990;7.370;2023-07-31T07:13:23;9.02;;;3.28;;
22378;SDS011;11357;49.990;7.370;2023-07-31T07:15:49;10.02;;;3.20;;
22378;SDS011;11357;49.990;7.370;2023-07-31T07:18:16;8.90;;;3.30;;
22378;SDS011;11357;49.990;7.370;2023-07-31T07:20:51;4.85;;;2.97;;
22378;SDS011;11357;49.990;7.370;2023-07-31T07:23:18;7.47;;;2.97;;
22378;SDS011;11357;49.990;7.370;2023-07-31T07:25:45;6.63;;;3.13;;
22378;SDS011;11357;49.990;7.370;2023-07-31T07:28:12;8.57;;;3.30;;
22378;SDS011;11357;49.990;7.370;2023-07-31T07:33:23;6.38;;;2.88;;
22378;SDS011;11357;49.990;7.370;2023-07-31T07:35:48;4.35;;;2.67;;
22378;SDS011;11357;49.990;7.370;2023-07-31T07:38:14;6.03;;;2.80;;
22378;SDS011;11357;49.990;7.370;2023-07-31T07:40:40;7.75;;;2.78;;
22378;SDS011;11357;49.990;7.370;2023-07-31T07:43:06;6.65;;;3.08;;
22378;SDS011;11357;49.990;7.370;2023-07-31T07:45:32;10.48;;;3.28;;
22378;SDS011;11357;49.990;7.370;2023-07-31T07:47:58;7.60;;;2.72;;
22378;SDS011;11357;49.990;7.370;2023-07-31T07:50:24;8.38;;;3.38;;
22378;SDS011;11357;49.990;7.370;2023-07-31T07:52:50;7.53;;;2.90;;
22378;SDS011;11357;49.990;7.370;2023-07-31T07:55:16;7.95;;;3.05;;
22378;SDS011;11357;49.990;7.370;2023-07-31T07:57:42;6.57;;;2.63;;
22378;SDS011;11357;49.990;7.370;2023-07-31T08:00:09;5.60;;;2.85;;
22378;SDS011;11357;49.990;7.370;2023-07-31T08:02:35;7.70;;;3.20;;
22378;SDS011;11357;49.990;7.370;2023-07-31T08:05:01;5.35;;;2.78;;
22378;SDS011;11357;49.990;7.370;2023-07-31T08:07:27;6.70;;;3.03;;
22378;SDS011;11357;49.990;7.370;2023-07-31T08:09:53;8.63;;;2.97;;
22378;SDS011;11357;49.990;7.370;2023-07-31T08:12:18;7.97;;;2.70;;
22378;SDS011;11357;49.990;7.370;2023-07-31T08:14:44;9.52;;;3.00;;
22378;SDS011;11357;49.990;7.370;2023-07-31T08:17:10;8.20;;;2.75;;
22378;SDS011;11357;49.990;7.370;2023-07-31T08:19:35;7.50;;;2.80;;
22378;SDS011;11357;49.990;7.370;2023-07-31T08:22:01;7.45;;;3.10;;
22378;SDS011;11357;49.990;7.370;2023-07-31T08:24:27;7.38;;;2.75;;
22378;SDS011;11357;49.990;7.370;2023-07-31T08:26:53;7.95;;;3.15;;
22378;SDS011;11357;49.990;7.370;2023-07-31T08:32:01;7.65;;;3.17;;
22378;SDS011;11357;49.990;7.370;2023-07-31T08:34:26;8.07;;;3.25;;
22378;SDS011;11357;49.990;7.370;2023-07-31T08:36:52;7.40;;;2.67;;
22378;SDS011;11357;49.990;7.370;2023-07-31T08:39:18;8.20;;;3.20;;
22378;SDS011;11357;49.990;7.370;2023-07-31T08:41:43;6.63;;;2.80;;
22378;SDS011;11357;49.990;7.370;2023-07-31T08:44:10;6.95;;;2.90;;
22378;SDS011;11357;49.990;7.370;2023-07-31T08:46:36;6.50;;;2.83;;
22378;SDS011;11357;49.990;7.370;2023-07-31T08:49:06;9.98;;;3.17;;
22378;SDS011;11357;49.990;7.370;2023-07-31T08:51:36;6.43;;;3.05;;
22378;SDS011;11357;49.990;7.370;2023-07-31T08:54:02;8.13;;;3.15;;
22378;SDS011;11357;49.990;7.370;2023-07-31T08:56:34;7.63;;;3.22;;
22378;SDS011;11357;49.990;7.370;2023-07-31T08:59:02;7.55;;;2.92;;
22378;SDS011;11357;49.990;7.370;2023-07-31T09:01:29;5.93;;;2.88;;
22378;SDS011;11357;49.990;7.370;2023-07-31T09:04:02;7.03;;;2.83;;
22378;SDS011;11357;49.990;7.370;2023-07-31T09:06:30;7.70;;;3.08;;
22378;SDS011;11357;49.990;7.370;2023-07-31T09:08:57;9.68;;;3.13;;
22378;SDS011;11357;49.990;7.370;2023-07-31T09:11:23;7.20;;;3.47;;
22378;SDS011;11357;49.990;7.370;2023-07-31T09:13:49;6.82;;;2.90;;
22378;SDS011;11357;49.990;7.370;2023-07-31T09:16:15;6.72;;;3.20;;
22378;SDS011;11357;49.990;7.370;2023-07-31T09:18:59;7.20;;;3.20;;
22378;SDS011;11357;49.990;7.370;2023-07-31T09:21:27;8.02;;;2.80;;
22378;SDS011;11357;49.990;7.370;2023-07-31T09:23:53;5.03;;;2.95;;
22378;SDS011;11357;49.990;7.370;2023-07-31T09:26:29;9.93;;;3.55;;
22378;SDS011;11357;49.990;7.370;2023-07-31T09:28:58;6.38;;;3.17;;
22378;SDS011;11357;49.990;7.370;2023-07-31T09:31:38;7.80;;;3.45;;
22378;SDS011;11357;49.990;7.370;2023-07-31T09:34:07;11.63;;;2.85;;
22378;SDS011;11357;49.990;7.370;2023-07-31T09:39:25;6.22;;;3.35;;
22378;SDS011;11357;49.990;7.370;2023-07-31T09:41:55;7.72;;;3.38;;
22378;SDS011;11357;49.990;7.370;2023-07-31T09:44:22;5.55;;;2.80;;
22378;SDS011;11357;49.990;7.370;2023-07-31T09:47:03;6.47;;;3.20;;
22378;SDS011;11357;49.990;7.370;2023-07-31T09:49:36;6.60;;;3.00;;
22378;SDS011;11357;49.990;7.370;2023-07-31T09:52:18;5.68;;;3.20;;
22378;SDS011;11357;49.990;7.370;2023-07-31T09:57:37;5.47;;;2.90;;
22378;SDS011;11357;49.990;7.370;2023-07-31T10:00:08;6.20;;;2.72;;
22378;SDS011;11357;49.990;7.370;2023-07-31T10:02:34;4.38;;;2.65;;
22378;SDS011;11357;49.990;7.370;2023-07-31T10:05:02;5.63;;;3.00;;
22378;SDS011;11357;49.990;7.370;2023-07-31T10:07:30;6.20;;;2.58;;
22378;SDS011;11357;49.990;7.370;2023-07-31T10:10:00;5.07;;;2.80;;
22378;SDS011;11357;49.990;7.370;2023-07-31T10:12:26;5.90;;;2.75;;
22378;SDS011;11357;49.990;7.370;2023-07-31T10:17:32;4.88;;;2.75;;
22378;SDS011;11357;49.990;7.370;2023-07-31T10:20:01;3.15;;;2.42;;
22378;SDS011;11357;49.990;7.370;2023-07-31T10:25:00;5.32;;;2.92;;
22378;SDS011;11357;49.990;7.370;2023-07-31T10:27:26;6.18;;;2.55;;
22378;SDS011;11357;49.990;7.370;2023-07-31T10:29:56;5.97;;;2.83;;
22378;SDS011;11357;49.990;7.370;2023-07-31T10:32:23;6.43;;;2.45;;
22378;SDS011;11357;49.990;7.370;2023-07-31T10:34:50;3.97;;;2.50;;
22378;SDS011;11357;49.990;7.370;2023-07-31T10:40:00;10.20;;;2.85;;
22378;SDS011;11357;49.990;7.370;2023-07-31T10:45:43;6.18;;;2.40;;
22378;SDS011;11357;49.990;7.370;2023-07-31T10:50:50;3.17;;;2.13;;
22378;SDS011;11357;49.990;7.370;2023-07-31T10:53:24;5.20;;;2.42;;
22378;SDS011;11357;49.990;7.370;2023-07-31T10:55:50;7.35;;;2.22;;
22378;SDS011;11357;49.990;7.370;2023-07-31T10:58:19;6.57;;;2.42;;
22378;SDS011;11357;49.990;7.370;2023-07-31T11:00:48;4.68;;;2.05;;
22378;SDS011;11357;49.990;7.370;2023-07-31T11:03:18;4.93;;;2.30;;
22378;SDS011;11357;49.990;7.370;2023-07-31T11:08:31;2.88;;;1.90;;
22378;SDS011;11357;49.990;7.370;2023-07-31T11:13:27;6.47;;;2.30;;
22378;SDS011;11357;49.990;7.370;2023-07-31T11:15:57;6.82;;;2.42;;
22378;SDS011;11357;49.990;7.370;2023-07-31T11:18:24;5.32;;;2.22;;
22378;SDS011;11357;49.990;7.370;2023-07-31T11:23:22;3.50;;;2.35;;
22378;SDS011;11357;49.990;7.370;2023-07-31T11:25:48;5.28;;;2.45;;
22378;SDS011;11357;49.990;7.370;2023-07-31T11:28:16;5.50;;;1.83;;
22378;SDS011;11357;49.990;7.370;2023-07-31T11:30:43;3.50;;;2.25;;
22378;SDS011;11357;49.990;7.370;2023-07-31T11:39:21;4.60;;;2.10;;
22378;SDS011;11357;49.990;7.370;2023-07-31T11:41:59;7.75;;;2.25;;
22378;SDS011;11357;49.990;7.370;2023-07-31T11:44:26;4.57;;;2.20;;
22378;SDS011;11357;49.990;7.370;2023-07-31T11:47:02;4.13;;;1.95;;
22378;SDS011;11357;49.990;7.370;2023-07-31T11:49:43;3.80;;;1.92;;
22378;SDS011;11357;49.990;7.370;2023-07-31T11:52:09;4.80;;;2.03;;
22378;SDS011;11357;49.990;7.370;2023-07-31T11:54:36;4.28;;;1.85;;
22378;SDS011;11357;49.990;7.370;2023-07-31T11:57:02;7.45;;;1.90;;
22378;SDS011;11357;49.990;7.370;2023-07-31T11:59:32;3.90;;;1.80;;
22378;SDS011;11357;49.990;7.370;2023-07-31T12:01:58;3.97;;;1.92;;
22378;SDS011;11357;49.990;7.370;2023-07-31T12:10:29;4.57;;;1.50;;
22378;SDS011;11357;49.990;7.370;2023-07-31T12:18:14;4.18;;;1.73;;
22378;SDS011;11357;49.990;7.370;2023-07-31T12:23:53;3.35;;;1.83;;
22378;SDS011;11357;49.990;7.370;2023-07-31T12:26:19;3.13;;;1.80;;
22378;SDS011;11357;49.990;7.370;2023-07-31T12:28:48;5.00;;;1.65;;
22378;SDS011;11357;49.990;7.370;2023-07-31T12:31:19;7.85;;;1.80;;
22378;SDS011;11357;49.990;7.370;2023-07-31T12:33:47;4.38;;;1.85;;
22378;SDS011;11357;49.990;7.370;2023-07-31T12:36:16;5.97;;;1.50;;
22378;SDS011;11357;49.990;7.370;2023-07-31T12:38:43;5.00;;;1.52;;
22378;SDS011;11357;49.990;7.370;2023-07-31T12:41:09;1.90;;;1.65;;
22378;SDS011;11357;49.990;7.370;2023-07-31T12:43:36;3.22;;;1.85;;
22378;SDS011;11357;49.990;7.370;2023-07-31T12:46:02;5.85;;;1.77;;
22378;SDS011;11357;49.990;7.370;2023-07-31T12:48:29;3.60;;;2.00;;
22378;SDS011;11357;49.990;7.370;2023-07-31T12:50:56;3.10;;;1.63;;
22378;SDS011;11357;49.990;7.370;2023-07-31T12:53:22;2.67;;;1.92;;
22378;SDS011;11357;49.990;7.370;2023-07-31T12:55:47;3.50;;;1.50;;
22378;SDS011;11357;49.990;7.370;2023-07-31T12:58:13;4.57;;;1.40;;
22378;SDS011;11357;49.990;7.370;2023-07-31T13:00:39;2.70;;;1.63;;
22378;SDS011;11357;49.990;7.370;2023-07-31T13:03:05;3.50;;;1.52;;
22378;SDS011;11357;49.990;7.370;2023-07-31T13:05:30;2.33;;;1.65;;
22378;SDS011;11357;49.990;7.370;2023-07-31T13:07:56;4.70;;;1.80;;
22378;SDS011;11357;49.990;7.370;2023-07-31T13:10:22;4.57;;;2.08;;
22378;SDS011;11357;49.990;7.370;2023-07-31T13:12:49;4.95;;;2.13;;
22378;SDS011;11357;49.990;7.370;2023-07-31T13:15:15;2.85;;;1.85;;
22378;SDS011;11357;49.990;7.370;2023-07-31T13:17:41;11.95;;;2.45;;
22378;SDS011;11357;49.990;7.370;2023-07-31T13:20:07;2.85;;;1.63;;
22378;SDS011;11357;49.990;7.370;2023-07-31T13:22:33;3.58;;;1.70;;
22378;SDS011;11357;49.990;7.370;2023-07-31T13:24:59;4.82;;;2.03;;
22378;SDS011;11357;49.990;7.370;2023-07-31T13:27:25;1.98;;;1.60;;
22378;SDS011;11357;49.990;7.370;2023-07-31T13:29:56;3.10;;;2.00;;
22378;SDS011;11357;49.990;7.370;2023-07-31T13:32:36;5.22;;;2.28;;
22378;SDS011;11357;49.990;7.370;2023-07-31T13:38:03;3.50;;;1.67;;
22378;SDS011;11357;49.990;7.370;2023-07-31T13:46:32;3.30;;;2.00;;
22378;SDS011;11357;49.990;7.370;2023-07-31T13:48:58;3.00;;;1.67;;
22378;SDS011;11357;49.990;7.370;2023-07-31T13:51:24;5.40;;;2.38;;
22378;SDS011;11357;49.990;7.370;2023-07-31T13:53:52;3.95;;;1.65;;
22378;SDS011;11357;49.990;7.370;2023-07-31T13:56:18;2.90;;;1.65;;
22378;SDS011;11357;49.990;7.370;2023-07-31T13:58:43;3.42;;;1.90;;
22378;SDS011;11357;49.990;7.370;2023-07-31T14:01:09;5.40;;;1.88;;
22378;SDS011;11357;49.990;7.370;2023-07-31T14:03:35;5.15;;;1.83;;
22378;SDS011;11357;49.990;7.370;2023-07-31T14:06:01;2.97;;;1.60;;
22378;SDS011;11357;49.990;7.370;2023-07-31T14:08:29;2.90;;;1.52;;
22378;SDS011;11357;49.990;7.370;2023-07-31T14:10:55;2.75;;;1.63;;
22378;SDS011;11357;49.990;7.370;2023-07-31T14:13:21;3.53;;;1.50;;
22378;SDS011;11357;49.990;7.370;2023-07-31T14:15:47;3.20;;;1.10;;
22378;SDS011;11357;49.990;7.370;2023-07-31T14:18:13;4.72;;;1.30;;
22378;SDS011;11357;49.990;7.370;2023-07-31T14:20:38;2.08;;;1.48;;
22378;SDS011;11357;49.990;7.370;2023-07-31T14:23:04;2.13;;;1.30;;
22378;SDS011;11357;49.990;7.370;2023-07-31T14:25:30;3.13;;;1.45;;
22378;SDS011;11357;49.990;7.370;2023-07-31T14:27:56;6.35;;;1.45;;
22378;SDS011;11357;49.990;7.370;2023-07-31T14:30:21;2.30;;;1.50;;
22378;SDS011;11357;49.990;7.370;2023-07-31T14:32:48;2.10;;;1.52;;
22378;SDS011;11357;49.990;7.370;2023-07-31T14:35:13;3.60;;;1.70;;
22378;SDS011;11357;49.990;7.370;2023-07-31T14:37:40;3.03;;;1.80;;
22378;SDS011;11357;49.990;7.370;2023-07-31T14:40:08;7.82;;;1.50;;
22378;SDS011;11357;49.990;7.370;2023-07-31T14:42:35;2.88;;;1.67;;
22378;SDS011;11357;49.990;7.370;2023-07-31T14:45:01;3.58;;;1.98;;
22378;SDS011;11357;49.990;7.370;2023-07-31T14:47:28;3.80;;;2.05;;
22378;SDS011;11357;49.990;7.370;2023-07-31T14:49:55;4.18;;;2.10;;
22378;SDS011;11357;49.990;7.370;2023-07-31T14:52:21;4.70;;;2.20;;
22378;SDS011;11357;49.990;7.370;2023-07-31T14:54:47;3.70;;;1.98;;
22378;SDS011;11357;49.990;7.370;2023-07-31T14:57:13;3.47;;;2.40;;
22378;SDS011;11357;49.990;7.370;2023-07-31T14:59:38;4.68;;;2.08;;
22378;SDS011;11357;49.990;7.370;2023-07-31T15:02:04;5.45;;;2.20;;
22378;SDS011;11357;49.990;7.370;2023-07-31T15:04:31;5.18;;;2.67;;
22378;SDS011;11357;49.990;7.370;2023-07-31T15:06:57;5.10;;;2.22;;
22378;SDS011;11357;49.990;7.370;2023-07-31T15:09:22;4.57;;;2.47;;
22378;SDS011;11357;49.990;7.370;2023-07-31T15:11:48;4.35;;;2.40;;
22378;SDS011;11357;49.990;7.370;2023-07-31T15:14:14;5.70;;;2.72;;
22378;SDS011;11357;49.990;7.370;2023-07-31T15:16:39;3.63;;;2.50;;
22378;SDS011;11357;49.990;7.370;2023-07-31T15:19:05;6.70;;;2.72;;
22378;SDS011;11357;49.990;7.370;2023-07-31T15:21:31;5.25;;;2.67;;
22378;SDS011;11357;49.990;7.370;2023-07-31T15:23:57;4.32;;;2.13;;
22378;SDS011;11357;49.990;7.370;2023-07-31T15:26:22;5.63;;;2.30;;
22378;SDS011;11357;49.990;7.370;2023-07-31T15:28:55;6.20;;;2.65;;
22378;SDS011;11357;49.990;7.370;2023-07-31T15:31:34;4.32;;;2.40;;
22378;SDS011;11357;49.990;7.370;2023-07-31T15:34:00;6.47;;;2.65;;
22378;SDS011;11357;49.990;7.370;2023-07-31T15:36:26;7.40;;;2.40;;
22378;SDS011;11357;49.990;7.370;2023-07-31T15:38:51;5.03;;;2.55;;
22378;SDS011;11357;49.990;7.370;2023-07-31T15:41:18;3.40;;;2.28;;
22378;SDS011;11357;49.990;7.370;2023-07-31T15:43:44;5.25;;;2.75;;
22378;SDS011;11357;49.990;7.370;2023-07-31T15:46:11;5.75;;;2.65;;
22378;SDS011;11357;49.990;7.370;2023-07-31T15:48:39;7.32;;;2.67;;
22378;SDS011;11357;49.990;7.370;2023-07-31T15:51:04;9.50;;;2.53;;
22378;SDS011;11357;49.990;7.370;2023-07-31T15:53:30;5.30;;;2.55;;